My Meet Scores
Casey Cooke, Patti Dunne's School Of Gymnastics - MyMeetScores.com
Top100 | Top Teams | Upcoming Meets | Completed Meets | Latest | Add Scores | Help| Support | Bookmark and Share

Casey Cooke, Patti Dunne's School Of Gymnastics
Personal Bests
LevelVault BarsBeamFloorAA
39.4009.300 9.6009.30037.400
49.0259.150 9.4508.90035.725
59.3258.975 9.5008.72536.525
Meet Scores
Date Meet Team Session Level Division Vault Bars Beam Floor AA
2020-02-21 Team Challenge 2020 Patti Dunne's School Of Gymnastics B3 5 Senior 9.325 4 8.975 2 9.500 2 8.725 5 36.525 2
2020-01-24 Manhattan Classic Patti Dunne's School Of Gymnastics 9CP 5 Senior 9.300 5T 7.550 15 8.525 6 8.125 15 33.500 14
2020-01-10 Little Boston Invitational Patti Dunne's School Of Gymnastics C10 5 SR 8.800 4T 7.350 13 8.325 7 7.775 9 32.250 9
2019-12-06 Rhode Island Invitational Patti Dunne's School Of Gymnastics WF4 5 senior 8.650 2 7.900 7 7.400 7 8.275 6 32.225 7
2019-02-08 Team Challenge 2019 Patti Dunne's School Of Gymnastics R5 4 Sr B 9.025 3 8.800 2T 9.000 5 8.900 3 35.725 2
2019-02-01 State Level 4&5 Patti Dunne's School Of Gymnastics 1 4 12 Up 8.800 20T 7.950 25* 8.575 38T 8.700 33T 34.025 31T
2019-01-26 Manhattan Classic Patti Dunne's School Of Gymnastics 4CP 4 Junior B 8.450 17T 8.225 13 9.450 3 8.800 10T 34.925 10
2019-01-18 DGS Northeast Invite Patti Dunne's School Of Gymnastics 6A 4 Jr A 8.200 5 9.150 1 9.350 1 8.800 3T 35.500 1
2019-01-10 Little Boston Invitational Patti Dunne's School Of Gymnastics C10 4 SR 8.550 10T 8.700 4 8.900 7T 8.100 7 34.250 6
2018-12-14 Shen's New England Classic Patti Dunne's School Of Gymnastics 08 4 JR B 8.450 3 9.075 1 8.700 2 8.300 3 34.525 2
2018-12-08 American Gymnastics Invitational Patti Dunne's School Of Gymnastics 5 4 Sr B 8.350 8T 8.350 3 9.300 3T 8.900 5T 34.900 6
2018-11-17 2018 Connecticut Judge's Cup Patti Dunne's School Of Gymnastics 6 4 11 yrs. 8.900 15T 8.650 14T 8.900 6T 8.625 37T 35.075 11
2018-02-16 Chelsea Piers Winter Challenge Patti Dunne's School Of Gymnastics F-4 4 Senior 8.500 16 8.850 6 8.600 10 8.700 11 34.650 9T
2018-02-09 Team Challenge 2018 Patti Dunne's School Of Gymnastics 08B 4 Sr B 8.800 14 8.300 14T 9.175 3 8.525 12 34.800 10T
2018-02-03 Level 4 & 5 States Patti Dunne's School Of Gymnastics 4 4 11 A 8.350 46T 7.200 55 9.150 19T 8.550 33 33.250 44T
2018-01-19 Kinetic Kids Invitational Patti Dunne's School Of Gymnastics 2 4 Sr A 8.800 9 8.750 9 9.350 3 8.500 10 35.400 9
2018-01-12 DGS Invitational Patti Dunne's School Of Gymnastics 5B 4 10 yrs. 7.850 18 6.650 19 8.950 6 8.550 13T 32.000 18
2017-11-30 Rhode Island Invitational Patti Dunne's School Of Gymnastics BF1 4 Senior 8.000 6T 7.400 14 8.950 1 8.300 8T 32.650 9
2017-03-25 2017 Connecticut Level 3 State Cup Patti Dunne's School Of Gymnastics 6 3 N/A 8.900 39T 9.000 18T 9.050 9T 9.275 5T 36.225 12
2017-02-18 Chelsea Piers Winter Challenge Patti Dunne's School Of Gymnastics F-4 3 Sr 9.400 1T 9.100 6 9.600 7 9.300 1 37.400 2
2017-02-10 Team Challenge 2017 Patti Dunne's School Of Gymnastics 10B 3 Senior 9.125 4 8.525 16 9.125 5 8.950 10 35.725 10
2017-01-27 24th Annual American Invitational Patti Dunne's School Of Gymnastics 6A 3 Senior 9.025 19T 8.250 25 8.925 8T 9.000 14T 35.200 19
2017-01-13 Northeast Invitational Patti Dunne's School Of Gymnastics 9 3 9 yrs. 8.900 12T 8.200 16 9.450 2T 8.800 6T 35.350 9
2016-12-02 Rhode Island Invitational Patti Dunne's School Of Gymnastics WS4 3 Senior 8.600 13 9.300 4 8.675 5 9.025 5 35.600 5
2016-04-02 2016 Connecticut Level 6 States & Level 3 State Cup Patti Dunne's School Of Gymnastics 7 3 N/A 8.900 45T 8.400 37T 9.000 4T 9.000 21T 35.300 19
2016-02-13 Chelsea Piers Winter Challenge Patti Dunne's School Of Gymnastics F5 3 JR A 8.050 16T 8.425 16 9.000 7 8.600 13T 34.075 13
2016-01-22 Sand Dollar/Whitlow Invitational Patti Dunne's School Of Gymnastics A03 3 Jr C 9.050 9 7.675 12 8.250 11 8.425 13 33.400 11
2016-01-15 DGS Invitational Patti Dunne's School Of Gymnastics A11 3 8 yrs. 9.000 13T 8.300 12T 8.300 22 8.700 9T 34.300 15
2015-12-04 Rhode Island Invitational Patti Dunne's School Of Gymnastics WS3 3 Junior 8.825 12 6.625 12 8.750 7 8.400 9 32.600 12
2015-11-21 Pilgrim Invitational Patti Dunne's School Of Gymnastics 6 3 Junior 9.000 7T 6.200 11 9.000 4T 9.050 3 33.250 9
Get your scores on
a t-shirt, pin, or hoodie

www.lazysuits.com